createdAt,value
2023-05-13T00:01:10.769Z,3.95
2023-05-13T00:03:38.129Z,3.60
2023-05-13T00:06:04.949Z,3.70
2023-05-13T00:08:31.667Z,4.32
2023-05-13T00:10:58.272Z,3.42
2023-05-13T00:13:24.907Z,4.22
2023-05-13T00:15:51.481Z,4.35
2023-05-13T00:18:18.297Z,4.40
2023-05-13T00:20:45.041Z,4.13
2023-05-13T00:23:11.711Z,4.47
2023-05-13T00:25:38.440Z,3.90
2023-05-13T00:28:05.154Z,3.95
2023-05-13T00:30:31.716Z,4.53
2023-05-13T00:32:58.685Z,4.22
2023-05-13T00:35:25.435Z,4.28
2023-05-13T00:37:52.116Z,4.50
2023-05-13T00:40:23.869Z,4.53
2023-05-13T00:42:51.562Z,4.57
2023-05-13T00:45:18.570Z,4.22
2023-05-13T00:47:45.600Z,4.78
2023-05-13T00:50:13.575Z,5.07
2023-05-13T00:52:41.522Z,4.70
2023-05-13T00:55:09.546Z,4.50
2023-05-13T00:57:37.223Z,4.25
2023-05-13T01:00:05.857Z,4.60
2023-05-13T01:02:39.218Z,5.10
2023-05-13T01:05:38.350Z,4.38
2023-05-13T01:08:36.814Z,4.40
2023-05-13T01:11:03.418Z,4.97
2023-05-13T01:13:39.813Z,4.57
2023-05-13T01:16:06.596Z,5.60
2023-05-13T01:18:52.511Z,4.97
2023-05-13T01:21:26.929Z,5.28
2023-05-13T01:23:53.684Z,4.53
2023-05-13T01:26:22.375Z,5.10
2023-05-13T01:28:49.387Z,4.63
2023-05-13T01:31:16.194Z,4.78
2023-05-13T01:33:43.788Z,4.65
2023-05-13T01:36:10.571Z,5.13
2023-05-13T01:38:38.072Z,5.57
2023-05-13T01:41:04.766Z,4.97
2023-05-13T01:43:31.444Z,5.10
2023-05-13T01:46:00.638Z,4.35
2023-05-13T01:48:27.368Z,5.22
2023-05-13T01:50:55.122Z,5.03
2023-05-13T01:53:21.627Z,5.20
2023-05-13T01:55:48.105Z,4.97
2023-05-13T01:58:14.690Z,5.82
2023-05-13T02:00:41.293Z,5.25
2023-05-13T02:03:07.991Z,5.20
2023-05-13T02:05:34.713Z,5.80
2023-05-13T02:08:01.256Z,5.65
2023-05-13T02:10:27.873Z,5.93
2023-05-13T02:12:54.426Z,5.80
2023-05-13T02:15:21.086Z,5.70
2023-05-13T02:17:47.637Z,6.03
2023-05-13T02:20:14.755Z,5.47
2023-05-13T02:22:41.184Z,4.97
2023-05-13T02:25:08.329Z,5.75
2023-05-13T02:27:34.928Z,5.45
2023-05-13T02:30:01.506Z,5.85
2023-05-13T02:32:28.188Z,4.97
2023-05-13T02:34:54.761Z,5.00
2023-05-13T02:37:21.363Z,5.72
2023-05-13T02:39:47.874Z,5.95
2023-05-13T02:42:14.397Z,6.20
2023-05-13T02:44:41.461Z,6.30
2023-05-13T02:47:08.040Z,5.90
2023-05-13T02:49:34.618Z,5.85
2023-05-13T02:52:01.177Z,6.70
2023-05-13T02:54:28.243Z,6.13
2023-05-13T02:56:54.786Z,6.07
2023-05-13T02:59:21.328Z,6.07
2023-05-13T03:01:47.994Z,6.30
2023-05-13T03:04:14.682Z,6.28
2023-05-13T03:06:41.242Z,6.05
2023-05-13T03:09:07.772Z,6.32
2023-05-13T03:11:36.735Z,6.22
2023-05-13T03:14:03.339Z,6.35
2023-05-13T03:16:29.951Z,5.88
2023-05-13T03:18:56.584Z,5.55
2023-05-13T03:21:23.127Z,6.28
2023-05-13T03:23:49.719Z,5.80
2023-05-13T03:26:16.693Z,5.70
2023-05-13T03:28:43.350Z,6.65
2023-05-13T03:31:09.863Z,6.47
2023-05-13T03:33:36.529Z,5.80
2023-05-13T03:36:03.152Z,6.60
2023-05-13T03:38:29.648Z,6.30
2023-05-13T03:40:56.188Z,6.30
2023-05-13T03:43:22.857Z,6.25
2023-05-13T03:45:50.762Z,6.82
2023-05-13T03:48:17.717Z,6.40
2023-05-13T03:50:44.487Z,6.35
2023-05-13T03:53:11.928Z,6.50
2023-05-13T03:55:38.600Z,6.53
2023-05-13T03:58:15.561Z,6.75
2023-05-13T04:00:43.468Z,6.47
2023-05-13T04:03:10.460Z,5.80
2023-05-13T04:05:37.272Z,6.47
2023-05-13T04:08:04.001Z,7.03
2023-05-13T04:10:30.554Z,6.47
2023-05-13T04:12:57.041Z,6.35
2023-05-13T04:15:23.633Z,6.70
2023-05-13T04:17:51.103Z,6.68
2023-05-13T04:20:18.035Z,6.43
2023-05-13T04:22:44.541Z,6.30
2023-05-13T04:25:11.482Z,5.82
2023-05-13T04:27:37.916Z,6.35
2023-05-13T04:30:05.034Z,6.82
2023-05-13T04:32:31.919Z,6.13
2023-05-13T04:34:58.762Z,6.45
2023-05-13T04:37:25.556Z,6.55
2023-05-13T04:39:52.196Z,6.55
2023-05-13T04:42:18.735Z,6.43
2023-05-13T04:44:45.330Z,6.40
2023-05-13T04:47:11.973Z,6.55
2023-05-13T04:49:38.468Z,6.22
2023-05-13T04:52:06.493Z,5.97
2023-05-13T04:54:35.442Z,6.85
2023-05-13T04:57:02.740Z,6.90
2023-05-13T04:59:29.346Z,6.75
2023-05-13T05:01:56.211Z,7.35
2023-05-13T05:04:22.862Z,6.80
2023-05-13T05:06:49.440Z,6.55
2023-05-13T05:09:16.100Z,6.60
2023-05-13T05:11:42.646Z,6.55
2023-05-13T05:14:09.210Z,7.18
2023-05-13T05:16:35.876Z,6.57
2023-05-13T05:19:02.534Z,7.00
2023-05-13T05:21:29.170Z,6.95
2023-05-13T05:23:55.772Z,7.10
2023-05-13T05:26:22.370Z,7.43
2023-05-13T05:28:49.006Z,6.63
2023-05-13T05:31:15.637Z,6.20
2023-05-13T05:33:42.472Z,6.93
2023-05-13T05:36:09.152Z,6.35
2023-05-13T05:38:36.121Z,7.07
2023-05-13T05:41:02.760Z,6.60
2023-05-13T05:43:29.399Z,6.75
2023-05-13T05:45:56.021Z,7.25
2023-05-13T05:48:22.614Z,7.25
2023-05-13T05:50:49.367Z,7.18
2023-05-13T05:53:15.983Z,7.03
2023-05-13T05:55:42.637Z,6.68
2023-05-13T05:58:10.186Z,6.65
2023-05-13T06:00:36.759Z,6.82
2023-05-13T06:03:03.489Z,6.97
2023-05-13T06:05:30.243Z,7.15
2023-05-13T06:07:56.961Z,6.78
2023-05-13T06:10:23.858Z,6.88
2023-05-13T06:12:51.413Z,7.35
2023-05-13T06:15:17.956Z,6.80
2023-05-13T06:17:44.555Z,7.25
2023-05-13T06:20:11.693Z,7.03
2023-05-13T06:22:38.306Z,6.65
2023-05-13T06:25:05.533Z,6.80
2023-05-13T06:30:01.465Z,5.97
2023-05-13T06:32:27.993Z,5.93
2023-05-13T06:34:55.953Z,6.20
2023-05-13T06:37:22.756Z,6.13
2023-05-13T06:39:49.548Z,6.30
2023-05-13T06:42:16.130Z,6.18
2023-05-13T06:44:42.545Z,6.10
2023-05-13T06:47:11.910Z,6.28
2023-05-13T06:49:38.472Z,6.50
2023-05-13T06:52:05.280Z,6.75
2023-05-13T06:54:32.061Z,6.15
2023-05-13T06:56:58.601Z,6.28
2023-05-13T06:59:25.322Z,6.47
2023-05-13T07:01:51.884Z,6.32
2023-05-13T07:04:18.403Z,6.55
2023-05-13T07:06:44.974Z,6.75
2023-05-13T07:09:11.505Z,6.40
2023-05-13T07:11:38.029Z,6.70
2023-05-13T07:14:04.576Z,6.78
2023-05-13T07:16:31.031Z,6.38
2023-05-13T07:18:57.655Z,6.35
2023-05-13T07:21:24.188Z,6.85
2023-05-13T07:23:50.739Z,6.28
2023-05-13T07:26:17.255Z,6.47
2023-05-13T07:28:43.792Z,6.50
2023-05-13T07:31:10.457Z,5.43
2023-05-13T07:33:37.111Z,6.53
2023-05-13T07:36:03.915Z,5.90
2023-05-13T07:38:30.360Z,6.32
2023-05-13T07:40:56.887Z,5.78
2023-05-13T07:43:27.823Z,5.35
2023-05-13T07:45:54.415Z,5.82
2023-05-13T07:48:20.910Z,5.85
2023-05-13T07:50:47.717Z,5.82
2023-05-13T07:53:14.321Z,5.47
2023-05-13T07:55:41.389Z,6.22
2023-05-13T07:58:07.802Z,5.45
2023-05-13T08:00:34.291Z,5.65
2023-05-13T08:03:00.910Z,5.85
2023-05-13T08:05:27.564Z,5.85
2023-05-13T08:07:54.052Z,5.65
2023-05-13T08:10:21.127Z,6.00
2023-05-13T08:12:52.110Z,6.18
2023-05-13T08:15:19.162Z,5.97
2023-05-13T08:17:45.765Z,6.93
2023-05-13T08:20:12.448Z,6.15
2023-05-13T08:22:38.928Z,6.15
2023-05-13T08:25:05.902Z,6.30
2023-05-13T08:27:32.441Z,6.07
2023-05-13T08:29:58.949Z,6.32
2023-05-13T08:32:25.575Z,6.20
2023-05-13T08:34:52.161Z,6.05
2023-05-13T08:37:18.731Z,6.38
2023-05-13T08:39:45.734Z,5.95
2023-05-13T08:42:15.144Z,5.93
2023-05-13T08:44:43.711Z,6.32
2023-05-13T08:47:44.073Z,5.82
2023-05-13T08:50:12.549Z,6.60
2023-05-13T08:52:39.868Z,5.93
2023-05-13T08:55:08.179Z,6.28
2023-05-13T08:57:34.700Z,5.55
2023-05-13T09:00:01.334Z,5.93
2023-05-13T09:02:27.927Z,5.45
2023-05-13T09:04:56.103Z,5.70
2023-05-13T09:07:22.758Z,5.75
2023-05-13T09:09:49.896Z,6.00
2023-05-13T09:12:58.267Z,6.05
2023-05-13T09:15:26.552Z,5.70
2023-05-13T09:18:11.593Z,5.60
2023-05-13T09:20:38.531Z,5.18
2023-05-13T09:23:10.738Z,5.40
2023-05-13T09:25:38.556Z,5.13
2023-05-13T09:28:07.723Z,5.70
2023-05-13T09:30:40.240Z,5.00
2023-05-13T09:33:09.462Z,4.85
2023-05-13T09:35:38.059Z,4.72
2023-05-13T09:38:14.725Z,5.03
2023-05-13T09:40:42.111Z,5.28
2023-05-13T09:43:08.687Z,5.07
2023-05-13T09:45:36.319Z,4.93
2023-05-13T09:48:03.132Z,4.47
2023-05-13T09:50:31.582Z,4.57
2023-05-13T09:52:58.116Z,4.13
2023-05-13T09:55:24.596Z,4.35
2023-05-13T09:57:53.367Z,4.65
2023-05-13T10:00:29.240Z,4.05
2023-05-13T10:03:01.243Z,4.25
2023-05-13T10:05:27.882Z,4.13
2023-05-13T10:07:55.545Z,4.32
2023-05-13T10:10:22.371Z,4.72
2023-05-13T10:12:50.623Z,4.07
2023-05-13T10:15:19.101Z,4.63
2023-05-13T10:17:46.986Z,3.80
2023-05-13T10:20:14.652Z,4.63
2023-05-13T10:22:41.909Z,3.47
2023-05-13T10:25:09.214Z,3.42
2023-05-13T10:27:35.840Z,3.75
2023-05-13T10:30:05.869Z,3.58
2023-05-13T10:32:32.562Z,3.50
2023-05-13T10:35:17.508Z,3.55
2023-05-13T10:38:02.834Z,3.42
2023-05-13T10:40:44.617Z,3.28
2023-05-13T10:43:32.765Z,3.20
2023-05-13T10:46:06.600Z,3.13
2023-05-13T10:48:43.539Z,2.88
2023-05-13T10:51:14.461Z,2.88
2023-05-13T10:53:47.895Z,2.65
2023-05-13T10:56:15.521Z,2.42
2023-05-13T10:58:42.308Z,2.40
2023-05-13T11:01:16.317Z,2.53
2023-05-13T11:03:52.328Z,2.45
2023-05-13T11:06:24.529Z,2.40
2023-05-13T11:08:55.756Z,2.42
2023-05-13T11:11:28.771Z,2.87
2023-05-13T11:16:25.783Z,2.70
2023-05-13T11:18:53.209Z,2.20
2023-05-13T11:21:31.037Z,2.05
2023-05-13T11:23:58.601Z,1.95
2023-05-13T11:26:25.607Z,2.00
2023-05-13T11:28:57.741Z,2.30
2023-05-13T11:31:26.039Z,2.22
2023-05-13T11:34:12.100Z,2.20
2023-05-13T11:36:40.482Z,1.95
2023-05-13T11:39:14.362Z,2.17
2023-05-13T11:41:43.499Z,2.15
2023-05-13T11:44:11.825Z,2.00
2023-05-13T11:46:38.337Z,2.40
2023-05-13T11:49:07.257Z,2.05
2023-05-13T11:51:34.443Z,2.22
2023-05-13T11:54:04.565Z,2.20
2023-05-13T11:56:31.223Z,2.10
2023-05-13T11:59:14.678Z,2.42
2023-05-13T12:01:41.537Z,2.47
2023-05-13T12:04:08.664Z,2.40
2023-05-13T12:06:35.711Z,2.03
2023-05-13T12:09:06.759Z,2.42
2023-05-13T12:11:33.920Z,1.80
2023-05-13T12:14:01.154Z,2.00
2023-05-13T12:16:28.118Z,2.10
2023-05-13T12:19:06.867Z,2.10
2023-05-13T12:21:34.669Z,2.17
2023-05-13T12:24:01.253Z,1.80
2023-05-13T12:26:27.844Z,2.10
2023-05-13T12:31:24.376Z,2.00
2023-05-13T12:33:51.573Z,1.88
2023-05-13T12:36:20.680Z,1.85
2023-05-13T12:39:01.476Z,2.10
2023-05-13T12:41:36.180Z,1.70
2023-05-13T12:44:10.629Z,1.77
2023-05-13T12:46:37.581Z,1.80
2023-05-13T12:49:05.801Z,2.00
2023-05-13T12:51:35.642Z,2.22
2023-05-13T12:54:02.248Z,1.98
2023-05-13T12:56:28.664Z,2.13
2023-05-13T12:58:55.286Z,1.98
2023-05-13T13:01:22.385Z,2.10
2023-05-13T13:03:49.174Z,1.83
2023-05-13T13:06:15.896Z,1.98
2023-05-13T13:08:42.393Z,1.98
2023-05-13T13:11:09.315Z,1.90
2023-05-13T13:13:38.101Z,2.08
2023-05-13T13:16:06.180Z,1.80
2023-05-13T13:18:32.706Z,1.77
2023-05-13T13:20:59.167Z,2.05
2023-05-13T13:23:25.710Z,1.77
2023-05-13T13:25:52.202Z,2.35
2023-05-13T13:28:18.781Z,2.08
2023-05-13T13:30:48.429Z,1.70
2023-05-13T13:33:16.173Z,2.22
2023-05-13T13:35:44.445Z,1.98
2023-05-13T13:38:11.078Z,2.30
2023-05-13T13:40:37.543Z,1.70
2023-05-13T13:43:05.676Z,2.00
2023-05-13T13:45:32.266Z,1.77
2023-05-13T13:47:59.361Z,1.58
2023-05-13T13:50:26.213Z,2.10
2023-05-13T13:52:52.741Z,2.15
2023-05-13T13:55:23.277Z,2.15
2023-05-13T13:57:50.692Z,2.60
2023-05-13T14:00:17.351Z,1.90
2023-05-13T14:02:44.113Z,1.73
2023-05-13T14:05:11.593Z,1.60
2023-05-13T14:07:38.146Z,1.95
2023-05-13T14:10:05.915Z,1.60
2023-05-13T14:12:32.537Z,2.55
2023-05-13T14:14:59.762Z,2.30
2023-05-13T14:17:26.291Z,1.83
2023-05-13T14:19:55.049Z,1.98
2023-05-13T14:22:24.840Z,1.85
2023-05-13T14:24:52.294Z,1.90
2023-05-13T14:27:19.627Z,1.95
2023-05-13T14:29:47.577Z,1.80
2023-05-13T14:32:14.609Z,2.00
2023-05-13T14:34:41.236Z,2.20
2023-05-13T14:37:07.777Z,2.17
2023-05-13T14:39:34.508Z,2.13
2023-05-13T14:42:01.590Z,1.75
2023-05-13T14:44:28.226Z,2.30
2023-05-13T14:46:55.051Z,1.92
2023-05-13T14:49:21.656Z,1.70
2023-05-13T14:51:48.149Z,2.40
2023-05-13T14:54:14.572Z,1.70
2023-05-13T14:56:41.535Z,1.60
2023-05-13T14:59:08.275Z,1.70
2023-05-13T15:01:34.808Z,1.83
2023-05-13T15:04:01.502Z,1.80
2023-05-13T15:06:29.107Z,1.70
2023-05-13T15:08:56.437Z,1.88
2023-05-13T15:11:23.183Z,1.85
2023-05-13T15:13:49.732Z,2.08
2023-05-13T15:16:16.245Z,2.30
2023-05-13T15:18:42.925Z,2.05
2023-05-13T15:21:09.463Z,2.40
2023-05-13T15:23:35.984Z,2.25
2023-05-13T15:26:02.492Z,2.40
2023-05-13T15:28:29.157Z,2.20
2023-05-13T15:30:55.927Z,2.47
2023-05-13T15:33:22.405Z,2.05
2023-05-13T15:35:48.976Z,2.47
2023-05-13T15:38:15.402Z,1.95
2023-05-13T15:40:41.863Z,2.22
2023-05-13T15:43:08.331Z,2.40
2023-05-13T15:45:34.834Z,2.40
2023-05-13T15:48:01.253Z,2.28
2023-05-13T15:50:27.775Z,2.33
2023-05-13T15:52:54.722Z,2.20
2023-05-13T15:55:22.178Z,2.20
2023-05-13T15:57:50.300Z,2.17
2023-05-13T16:00:17.963Z,2.03
2023-05-13T16:02:44.667Z,2.20
2023-05-13T16:05:11.945Z,2.10
2023-05-13T16:07:38.432Z,2.33
2023-05-13T16:10:05.152Z,2.13
2023-05-13T16:12:31.588Z,2.25
2023-05-13T16:14:57.993Z,2.22
2023-05-13T16:17:24.469Z,2.25
2023-05-13T16:19:51.012Z,2.72
2023-05-13T16:22:29.065Z,2.40
2023-05-13T16:25:00.767Z,2.55
2023-05-13T16:27:28.279Z,2.60
2023-05-13T16:29:56.169Z,2.55
2023-05-13T16:32:22.992Z,2.67
2023-05-13T16:34:49.670Z,2.50
2023-05-13T16:37:16.218Z,2.55
2023-05-13T16:39:42.808Z,2.53
2023-05-13T16:42:09.578Z,2.72
2023-05-13T16:44:36.095Z,2.42
2023-05-13T16:47:02.819Z,2.38
2023-05-13T16:49:29.448Z,2.40
2023-05-13T16:51:55.959Z,2.40
2023-05-13T16:54:22.384Z,2.95
2023-05-13T16:56:50.417Z,3.30
2023-05-13T16:59:24.487Z,3.00
2023-05-13T17:01:52.358Z,2.92
2023-05-13T17:04:19.818Z,3.45
2023-05-13T17:06:46.394Z,2.45
2023-05-13T17:09:12.966Z,2.70
2023-05-13T17:11:39.586Z,2.38
2023-05-13T17:14:06.498Z,2.45
2023-05-13T17:16:33.472Z,2.40
2023-05-13T17:19:00.119Z,2.55
2023-05-13T17:21:26.809Z,2.55
2023-05-13T17:23:53.500Z,2.65
2023-05-13T17:26:21.695Z,2.28
2023-05-13T17:28:48.935Z,2.50
2023-05-13T17:31:15.503Z,2.58
2023-05-13T17:33:42.124Z,2.55
2023-05-13T17:36:08.749Z,2.55
2023-05-13T17:38:35.261Z,2.75
2023-05-13T17:41:01.865Z,2.55
2023-05-13T17:43:28.390Z,2.17
2023-05-13T17:45:54.850Z,2.70
2023-05-13T17:48:21.463Z,2.88
2023-05-13T17:50:48.013Z,2.38
2023-05-13T17:53:14.556Z,2.70
2023-05-13T17:55:41.065Z,3.42
2023-05-13T17:58:07.573Z,2.60
2023-05-13T18:00:34.076Z,2.80
2023-05-13T18:03:00.735Z,2.50
2023-05-13T18:05:27.597Z,2.33
2023-05-13T18:07:54.241Z,2.75
2023-05-13T18:10:21.193Z,2.75
2023-05-13T18:12:48.014Z,2.85
2023-05-13T18:15:14.636Z,3.10
2023-05-13T18:17:41.215Z,2.60
2023-05-13T18:20:08.354Z,2.72
2023-05-13T18:22:35.018Z,2.72
2023-05-13T18:25:01.563Z,2.80
2023-05-13T18:27:28.122Z,3.08
